Time;durP1;ratioP1;P1;durP2;ratioP2;P2;SDS_P1;SDS_P2;PMS_P1;PMS_P2;Temp;Humidity;BMP_temperature;BMP_pressure;BME280_temperature;BME280_humidity;BME280_pressure;Samples;Min_cycle;Max_cycle;Signal;HPM_P1;HPM_P2
2022/07/04 00:02:41;;;;;;;4.22;1.85;;;;;;;23.00;54.35;100328.22;5492013;32;34319;-68
2022/07/04 00:05:44;;;;;;;6.07;2.45;;;;;;;22.86;54.78;100327.78;5491996;32;35466;-68
2022/07/04 00:08:47;;;;;;;2.95;1.90;;;;;;;22.89;54.64;100328.13;5492141;32;34911;-68
2022/07/04 00:11:49;;;;;;;4.22;2.05;;;;;;;22.85;54.77;100326.16;5492033;32;34405;-68
2022/07/04 00:14:52;;;;;;;3.35;1.90;;;;;;;22.76;54.61;100328.47;5491951;32;34696;-68
2022/07/04 00:17:55;;;;;;;4.40;1.70;;;;;;;22.78;56.66;100330.94;5491995;32;34297;-68
2022/07/04 00:20:57;;;;;;;2.33;2.12;;;;;;;22.72;55.54;100334.63;5491881;32;35380;-68
2022/07/04 00:24:00;;;;;;;2.50;1.75;;;;;;;22.44;55.80;100330.94;5479327;32;34114;-68
2022/07/04 00:27:04;;;;;;;3.67;1.90;;;;;;;22.23;57.05;100328.97;5509146;32;34032;-68
2022/07/04 00:30:07;;;;;;;4.93;2.10;;;;;;;22.05;57.41;100332.72;5532171;32;34907;-68
2022/07/04 00:33:13;;;;;;;6.07;2.08;;;;;;;21.94;57.77;100324.66;5532388;32;34232;-68
2022/07/04 00:36:16;;;;;;;2.60;2.00;;;;;;;21.84;58.23;100325.28;5532077;32;35059;-68
2022/07/04 00:39:19;;;;;;;3.53;1.98;;;;;;;21.77;58.16;100335.44;5532032;32;34813;-67
2022/07/04 00:42:23;;;;;;;3.72;2.05;;;;;;;21.84;58.38;100337.97;5531940;32;34681;-68
2022/07/04 00:45:25;;;;;;;2.92;2.00;;;;;;;22.04;57.48;100336.47;5531755;32;34185;-67
2022/07/04 00:48:28;;;;;;;2.85;2.20;;;;;;;21.82;58.20;100338.22;5531969;32;34143;-68
2022/07/04 00:51:30;;;;;;;6.87;1.90;;;;;;;21.68;58.82;100339.59;5531937;32;35540;-67
2022/07/04 00:54:34;;;;;;;3.67;1.85;;;;;;;21.64;59.08;100323.03;5531735;32;34228;-68
2022/07/04 00:57:37;;;;;;;6.45;2.10;;;;;;;21.63;59.74;100332.22;5532192;32;34322;-68
2022/07/04 01:00:40;;;;;;;4.07;1.90;;;;;;;21.55;59.41;100329.03;5530959;32;32445;-68
2022/07/04 01:03:43;;;;;;;3.65;1.92;;;;;;;21.49;59.80;100335.44;5531777;32;35021;-68
2022/07/04 01:06:46;;;;;;;3.10;2.03;;;;;;;21.39;60.10;100333.34;5531640;32;34570;-68
2022/07/04 01:09:49;;;;;;;5.05;2.20;;;;;;;21.29;60.54;100337.72;5532217;32;34553;-68
2022/07/04 01:12:54;;;;;;;3.22;2.03;;;;;;;21.59;59.03;100343.72;5531605;32;34436;-68
2022/07/04 01:15:56;;;;;;;2.50;2.12;;;;;;;21.83;57.70;100345.28;5531691;32;34215;-68
2022/07/04 01:18:59;;;;;;;3.67;2.05;;;;;;;21.97;57.37;100337.72;5531832;32;34768;-68
2022/07/04 01:22:06;;;;;;;3.15;2.00;;;;;;;22.00;56.71;100339.91;5531659;32;34679;-68
2022/07/04 01:25:09;;;;;;;2.47;2.00;;;;;;;22.06;56.25;100345.19;5531747;32;34090;-68
2022/07/04 01:28:12;;;;;;;4.40;2.25;;;;;;;22.00;57.84;100342.63;5531563;32;34315;-68
2022/07/04 01:31:15;;;;;;;3.92;2.40;;;;;;;21.93;57.19;100347.34;5531705;32;34815;-68
2022/07/04 01:34:18;;;;;;;2.60;2.22;;;;;;;21.95;56.64;100350.62;5530767;32;33728;-68
2022/07/04 01:37:21;;;;;;;2.97;2.35;;;;;;;21.85;56.86;100337.72;5531567;32;34889;-68
2022/07/04 01:40:23;;;;;;;5.55;2.25;;;;;;;21.91;56.75;100342.16;5531390;32;34249;-67
2022/07/04 01:43:28;;;;;;;3.75;2.55;;;;;;;21.91;57.02;100341.34;5531504;32;34166;-67
2022/07/04 01:46:31;;;;;;;4.60;2.85;;;;;;;21.82;57.31;100337.41;5531788;32;34432;-68
2022/07/04 01:49:34;;;;;;;3.78;2.20;;;;;;;21.69;57.79;100336.63;5531380;32;34983;-68
2022/07/04 01:52:37;;;;;;;3.28;2.60;;;;;;;21.70;57.86;100337.44;5531344;32;34148;-67
2022/07/04 01:55:39;;;;;;;3.45;2.37;;;;;;;21.59;58.33;100346.44;5530694;32;34910;-68
2022/07/04 01:58:42;;;;;;;3.53;2.25;;;;;;;21.54;58.86;100341.72;5531187;32;35429;-68
2022/07/04 02:01:45;;;;;;;3.92;2.40;;;;;;;21.40;59.07;100347.62;5531414;32;34194;-68
2022/07/04 02:04:49;;;;;;;3.65;2.80;;;;;;;21.45;59.41;100345.03;5531257;32;34236;-68
2022/07/04 02:07:53;;;;;;;3.00;2.40;;;;;;;21.25;59.60;100345.47;5531237;32;34136;-68
2022/07/04 02:10:55;;;;;;;3.28;2.40;;;;;;;21.16;59.75;100347.69;5531215;32;34276;-67
2022/07/04 02:13:58;;;;;;;3.67;2.30;;;;;;;21.17;59.79;100346.66;5531186;32;34219;-67
2022/07/04 02:17:01;;;;;;;5.93;2.70;;;;;;;20.99;60.64;100354.03;5531520;32;34819;-68
2022/07/04 02:20:06;;;;;;;3.83;2.40;;;;;;;20.97;63.12;100356.97;5531089;32;34951;-68
2022/07/04 02:23:08;;;;;;;3.53;2.35;;;;;;;21.10;60.30;100354.03;5531127;32;34243;-68
2022/07/04 02:26:11;;;;;;;4.00;2.60;;;;;;;21.15;60.05;100350.66;5531103;32;34837;-67
2022/07/04 02:29:14;;;;;;;4.30;2.30;;;;;;;21.33;59.88;100355.87;5531108;32;34290;-68
2022/07/04 02:32:17;;;;;;;3.95;2.70;;;;;;;21.19;59.78;100347.25;5531377;32;34226;-67
2022/07/04 02:35:19;;;;;;;3.15;2.50;;;;;;;21.14;59.87;100347.12;5530127;32;34278;-67
2022/07/04 02:38:22;;;;;;;3.03;2.45;;;;;;;21.19;59.61;100344.53;5530831;32;34103;-68
2022/07/04 02:41:24;;;;;;;4.32;2.58;;;;;;;21.23;60.05;100344.88;5530801;32;34282;-68
2022/07/04 02:44:28;;;;;;;4.72;2.60;;;;;;;21.39;59.16;100352.25;5530848;32;34139;-67
2022/07/04 02:47:30;;;;;;;5.37;2.87;;;;;;;21.36;59.25;100354.56;5530911;32;34269;-67
2022/07/04 02:50:33;;;;;;;5.50;2.60;;;;;;;21.41;59.09;100360.09;5530800;32;34317;-67
2022/07/04 02:53:36;;;;;;;3.28;2.50;;;;;;;21.51;58.67;100363.00;5531023;32;34293;-67
2022/07/04 02:56:38;;;;;;;3.87;2.50;;;;;;;21.54;58.53;100365.22;5531081;32;34892;-67
2022/07/04 02:59:41;;;;;;;8.07;2.80;;;;;;;21.54;58.55;100362.53;5530704;32;35432;-67
2022/07/04 03:02:44;;;;;;;3.53;2.50;;;;;;;21.53;58.63;100366.28;5530612;32;34172;-67
2022/07/04 03:05:46;;;;;;;4.05;2.50;;;;;;;21.54;58.64;100366.03;5529997;32;34278;-67
2022/07/04 03:08:49;;;;;;;4.05;2.90;;;;;;;21.46;59.23;100361.00;5530513;32;34240;-67
2022/07/04 03:11:52;;;;;;;9.55;2.78;;;;;;;21.32;59.95;100356.94;5529609;32;33247;-68
2022/07/04 03:14:54;;;;;;;7.12;2.65;;;;;;;21.20;60.33;100358.84;5530270;32;34169;-67
2022/07/04 03:17:57;;;;;;;5.65;2.75;;;;;;;21.14;60.71;100354.41;5530373;32;34924;-67
2022/07/04 03:21:00;;;;;;;4.80;2.80;;;;;;;21.24;60.47;100360.03;5530461;32;34422;-67
2022/07/04 03:24:03;;;;;;;4.43;2.40;;;;;;;21.24;60.78;100354.63;5530380;32;34480;-67
2022/07/04 03:27:06;;;;;;;3.65;2.58;;;;;;;21.29;60.82;100359.31;5530263;32;34822;-68
2022/07/04 03:30:09;;;;;;;4.53;2.53;;;;;;;21.88;58.47;100358.06;5530182;32;34311;-67
2022/07/04 03:33:12;;;;;;;4.40;2.70;;;;;;;22.12;57.26;100359.59;5530035;32;34576;-67
2022/07/04 03:36:15;;;;;;;4.85;2.83;;;;;;;22.21;56.74;100358.13;5530362;32;34622;-67
2022/07/04 03:39:18;;;;;;;3.83;2.33;;;;;;;22.28;56.39;100356.06;5530408;32;34579;-67
2022/07/04 03:42:20;;;;;;;7.07;2.70;;;;;;;22.24;56.91;100357.62;5529904;32;34858;-67
2022/07/04 03:45:23;;;;;;;5.72;2.90;;;;;;;22.25;56.86;100355.75;5530208;32;34783;-67
2022/07/04 03:48:26;;;;;;;4.05;2.55;;;;;;;22.36;56.80;100357.56;5529819;32;35473;-67
2022/07/04 03:51:29;;;;;;;4.43;2.55;;;;;;;22.26;57.08;100352.81;5529871;32;34123;-67
2022/07/04 03:54:31;;;;;;;4.68;2.80;;;;;;;22.21;57.62;100362.72;5529646;32;34968;-67
2022/07/04 03:57:34;;;;;;;5.70;2.17;;;;;;;22.24;57.34;100354.09;5529667;32;34141;-68
2022/07/04 04:00:37;;;;;;;3.58;2.70;;;;;;;22.27;57.44;100353.62;5529705;32;34364;-67
2022/07/04 04:07:02;;;;;;;3.62;2.55;;;;;;;22.41;56.84;100352.25;5529456;32;34242;-69
2022/07/04 04:10:05;;;;;;;3.50;2.42;;;;;;;22.53;56.69;100359.19;5529473;32;34289;-68
2022/07/04 04:13:08;;;;;;;3.30;2.78;;;;;;;22.66;56.47;100354.50;5529405;32;34224;-68
2022/07/04 04:16:11;;;;;;;3.05;2.42;;;;;;;22.66;56.16;100358.03;5529536;32;34158;-68
2022/07/04 04:19:13;;;;;;;4.25;3.00;;;;;;;22.78;56.06;100366.09;5529644;32;34290;-68
2022/07/04 04:22:16;;;;;;;4.18;2.65;;;;;;;22.84;55.65;100370.50;5532039;32;34861;-68
2022/07/04 04:25:19;;;;;;;6.20;3.10;;;;;;;22.86;55.33;100368.38;5532078;32;35520;-68
2022/07/04 04:28:22;;;;;;;3.40;2.67;;;;;;;22.93;55.78;100367.13;5532214;32;34193;-68
2022/07/04 04:31:25;;;;;;;8.85;3.30;;;;;;;23.05;54.88;100364.31;5532148;32;34911;-68
2022/07/04 04:34:28;;;;;;;4.82;3.00;;;;;;;23.17;54.61;100364.19;5531876;32;34284;-67
2022/07/04 04:37:30;;;;;;;5.03;3.22;;;;;;;23.28;54.32;100360.56;5532301;32;34178;-68
2022/07/04 04:40:33;;;;;;;5.95;2.83;;;;;;;23.42;54.09;100359.13;5531776;32;34211;-68
2022/07/04 04:43:36;;;;;;;7.90;3.10;;;;;;;23.58;53.21;100357.41;5531843;32;35546;-68
2022/07/04 04:46:39;;;;;;;4.07;3.10;;;;;;;23.74;52.53;100360.06;5530947;32;34272;-68
2022/07/04 04:49:42;;;;;;;4.07;2.70;;;;;;;23.90;52.19;100347.50;5532276;32;34559;-68
2022/07/04 04:52:44;;;;;;;5.22;2.75;;;;;;;24.03;51.75;100344.34;5531896;32;34289;-68
2022/07/04 04:55:47;;;;;;;6.05;3.08;;;;;;;24.15;51.67;100345.03;5531780;32;34866;-68
2022/07/04 04:58:50;;;;;;;5.47;3.30;;;;;;;24.31;51.25;100345.16;5531701;32;34180;-68
2022/07/04 05:01:52;;;;;;;5.70;2.80;;;;;;;24.41;51.01;100340.62;5532036;32;34758;-67
2022/07/04 05:04:57;;;;;;;4.00;2.90;;;;;;;24.59;51.12;100337.50;5530995;32;34710;-68
2022/07/04 05:07:59;;;;;;;4.75;2.67;;;;;;;24.75;50.46;100343.03;5531654;32;34276;-68
2022/07/04 05:11:03;;;;;;;3.80;2.90;;;;;;;24.94;49.61;100345.09;5532031;32;34317;-68
2022/07/04 05:14:06;;;;;;;4.12;3.00;;;;;;;25.04;52.34;100344.34;5530690;32;34148;-68
2022/07/04 05:17:09;;;;;;;4.68;2.92;;;;;;;25.13;49.88;100342.75;5530872;32;34191;-68
2022/07/04 05:20:13;;;;;;;4.90;2.78;;;;;;;25.26;48.86;100345.00;5531131;32;34892;-68
2022/07/04 05:23:16;;;;;;;3.90;2.62;;;;;;;25.38;48.42;100348.28;5531481;32;34210;-68
2022/07/04 05:26:19;;;;;;;4.50;2.78;;;;;;;25.53;47.55;100352.97;5531674;32;34514;-68
2022/07/04 05:29:22;;;;;;;3.95;2.45;;;;;;;25.68;47.09;100357.66;5531457;32;34230;-68
2022/07/04 05:32:25;;;;;;;5.68;2.50;;;;;;;25.82;47.29;100358.78;5530556;32;34227;-68
2022/07/04 05:35:29;;;;;;;3.60;2.60;;;;;;;25.98;45.93;100365.06;5531448;32;34054;-68
2022/07/04 05:38:32;;;;;;;4.28;2.75;;;;;;;26.11;46.08;100365.34;5531342;32;34859;-68
2022/07/04 05:41:35;;;;;;;3.20;2.30;;;;;;;26.23;44.83;100360.50;5531186;32;34286;-68
2022/07/04 05:44:37;;;;;;;4.40;3.00;;;;;;;26.37;44.32;100372.47;5530330;32;32845;-67
2022/07/04 05:47:40;;;;;;;7.80;2.87;;;;;;;26.51;44.91;100369.22;5530318;32;34935;-69
2022/07/04 05:50:43;;;;;;;5.40;2.90;;;;;;;26.60;43.95;100378.44;5531229;32;34956;-68
2022/07/04 05:53:46;;;;;;;3.35;2.30;;;;;;;26.72;43.78;100371.63;5531176;32;34238;-68
2022/07/04 05:56:48;;;;;;;6.22;2.75;;;;;;;26.91;42.34;100369.19;5531242;32;34157;-68
2022/07/04 05:59:52;;;;;;;3.03;2.40;;;;;;;27.06;42.72;100371.06;5530487;32;34997;-68
2022/07/04 06:02:55;;;;;;;3.45;2.15;;;;;;;27.13;41.60;100374.31;5531366;32;34883;-68
2022/07/04 06:05:58;;;;;;;4.62;2.30;;;;;;;27.27;41.03;100369.06;5530044;32;33383;-69
2022/07/04 06:09:03;;;;;;;4.95;2.35;;;;;;;27.31;40.60;100370.97;5531290;32;34318;-68
2022/07/04 06:12:06;;;;;;;3.95;2.05;;;;;;;27.42;40.66;100367.13;5531102;32;34247;-68
2022/07/04 06:15:12;;;;;;;4.28;2.40;;;;;;;27.48;39.72;100368.72;5530862;32;34208;-69
2022/07/04 06:18:15;;;;;;;3.90;2.40;;;;;;;27.55;39.58;100369.25;5531120;32;34369;-68
2022/07/04 06:21:17;;;;;;;2.70;1.90;;;;;;;27.70;39.09;100365.63;5517553;32;35447;-68
2022/07/04 06:24:22;;;;;;;2.72;2.00;;;;;;;27.79;39.27;100365.87;5531116;32;34128;-68
2022/07/04 06:27:25;;;;;;;4.28;2.10;;;;;;;27.75;39.23;100362.06;5531134;32;34792;-68
2022/07/04 06:30:28;;;;;;;4.25;2.05;;;;;;;27.78;39.43;100365.06;5530892;32;34313;-68
2022/07/04 06:33:31;;;;;;;3.15;2.12;;;;;;;27.95;39.58;100365.50;5530165;32;34123;-69
2022/07/04 06:36:34;;;;;;;4.78;2.17;;;;;;;27.93;39.94;100367.66;5530832;32;34811;-68
2022/07/04 06:39:36;;;;;;;2.15;1.87;;;;;;;28.09;38.93;100371.94;5530636;32;34332;-68
2022/07/04 06:42:39;;;;;;;4.97;1.70;;;;;;;28.13;38.19;100374.16;5530429;32;34478;-68
2022/07/04 06:45:42;;;;;;;5.65;1.87;;;;;;;28.30;37.79;100375.38;5529995;32;34190;-68
2022/07/04 06:48:45;;;;;;;2.50;1.67;;;;;;;28.42;37.84;100364.88;5531181;32;34157;-68
2022/07/04 06:51:51;;;;;;;2.87;1.80;;;;;;;28.52;37.11;100359.34;5530665;32;34171;-68
2022/07/04 06:54:54;;;;;;;7.20;1.55;;;;;;;28.61;36.82;100364.19;5530880;32;34946;-68
2022/07/04 06:57:57;;;;;;;4.35;1.70;;;;;;;28.73;36.36;100361.91;5530520;32;34327;-68
2022/07/04 07:01:04;;;;;;;2.28;1.52;;;;;;;28.93;36.44;100367.16;5530472;32;34131;-69
2022/07/04 07:04:07;;;;;;;2.10;1.50;;;;;;;29.10;35.56;100370.25;5529642;32;34198;-68
2022/07/04 07:07:10;;;;;;;4.35;1.30;;;;;;;29.25;35.84;100359.16;5530162;32;34558;-69
2022/07/04 07:10:13;;;;;;;3.17;1.30;;;;;;;29.56;35.40;100362.34;5530224;32;34155;-68
2022/07/04 07:13:16;;;;;;;4.35;1.48;;;;;;;29.68;34.29;100362.72;5530279;32;34890;-67
2022/07/04 07:16:19;;;;;;;1.85;1.00;;;;;;;29.77;32.67;100362.87;5530237;32;34893;-68
2022/07/04 07:19:22;;;;;;;0.98;0.90;;;;;;;29.93;31.62;100366.22;5530243;32;34155;-68
2022/07/04 07:22:25;;;;;;;4.03;1.02;;;;;;;30.06;31.53;100369.06;5530224;32;34262;-68
2022/07/04 07:25:28;;;;;;;2.58;0.90;;;;;;;30.48;30.93;100364.56;5529489;32;32845;-68
2022/07/04 07:28:31;;;;;;;1.65;1.00;;;;;;;30.70;30.05;100370.19;5529013;32;34317;-68
2022/07/04 07:31:34;;;;;;;1.80;1.05;;;;;;;30.71;30.12;100360.03;5529907;32;34218;-68
2022/07/04 07:34:37;;;;;;;2.37;0.98;;;;;;;30.83;30.21;100361.19;5529750;32;34848;-68
2022/07/04 07:37:40;;;;;;;1.40;0.80;;;;;;;31.04;29.22;100367.09;5529396;32;34873;-67
2022/07/04 07:40:42;;;;;;;1.05;0.95;;;;;;;31.20;29.21;100376.66;5529613;32;34660;-67
2022/07/04 07:43:45;;;;;;;1.20;0.90;;;;;;;31.49;28.62;100373.59;5528970;32;33526;-68
2022/07/04 07:46:51;;;;;;;0.82;0.75;;;;;;;32.03;28.55;100366.37;5529672;32;34282;-69
2022/07/04 07:49:54;;;;;;;1.42;0.90;;;;;;;32.70;27.38;100372.72;5529591;32;34481;-69
2022/07/04 07:52:56;;;;;;;1.50;0.90;;;;;;;33.03;26.37;100367.69;5529415;32;34671;-69
2022/07/04 07:55:59;;;;;;;1.35;0.82;;;;;;;32.95;26.13;100357.50;5531162;32;34270;-68
2022/07/04 07:59:02;;;;;;;1.52;0.82;;;;;;;33.35;25.35;100361.06;5531769;32;34296;-68
2022/07/04 08:02:05;;;;;;;1.77;0.70;;;;;;;33.22;25.74;100370.22;5532113;32;34259;-69
2022/07/04 08:05:09;;;;;;;3.12;0.70;;;;;;;33.02;25.68;100364.12;5531130;32;34739;-69
2022/07/04 08:08:11;;;;;;;1.08;0.90;;;;;;;32.35;25.65;100369.72;5531540;32;34527;-69
2022/07/04 08:11:14;;;;;;;1.20;0.80;;;;;;;32.93;25.67;100359.72;5517730;32;33629;-69
2022/07/04 08:14:17;;;;;;;0.90;0.80;;;;;;;33.12;25.31;100355.59;5531724;32;34890;-68
2022/07/04 08:17:20;;;;;;;1.20;0.80;;;;;;;33.65;24.53;100353.84;5531549;32;34970;-68
2022/07/04 08:20:23;;;;;;;1.23;0.88;;;;;;;33.47;24.33;100353.78;5531127;32;34573;-68
2022/07/04 08:23:27;;;;;;;0.95;0.82;;;;;;;35.23;22.54;100351.84;5531545;32;34227;-68
2022/07/04 08:26:32;;;;;;;0.88;0.80;;;;;;;33.95;23.72;100350.16;5531900;32;34905;-69
2022/07/04 08:29:35;;;;;;;1.00;0.70;;;;;;;33.71;24.66;100347.06;5531403;32;34340;-69
2022/07/04 08:32:38;;;;;;;1.58;0.82;;;;;;;34.28;23.67;100347.72;5517720;32;33893;-68
2022/07/04 08:35:41;;;;;;;0.80;0.70;;;;;;;33.97;23.31;100343.19;5530190;32;32730;-69
2022/07/04 08:38:43;;;;;;;1.48;0.95;;;;;;;34.18;23.19;100350.81;5531352;32;34645;-68
2022/07/04 08:41:51;;;;;;;1.00;0.80;;;;;;;34.33;23.86;100356.63;5531435;32;34245;-69
2022/07/04 08:44:55;;;;;;;0.62;0.60;;;;;;;35.34;22.04;100356.97;5531382;32;34225;-69
2022/07/04 08:48:09;;;;;;;1.12;0.80;;;;;;;36.11;20.89;100357.22;5530477;32;33995;-68
2022/07/04 08:51:19;;;;;;;0.85;0.62;;;;;;;36.48;21.26;100343.56;5531534;32;35163;-67
2022/07/04 09:01:14;;;;;;;1.45;0.80;;;;;;;35.95;21.61;100353.47;5530485;32;34462;-68
2022/07/04 09:04:21;;;;;;;1.15;0.62;;;;;;;35.94;21.68;100349.09;5517908;32;34890;-68
2022/07/04 09:07:28;;;;;;;1.70;1.20;;;;;;;35.25;21.59;100352.28;5517500;32;33914;-68
2022/07/04 09:10:32;;;;;;;;;;;;;;;35.05;21.91;100357.75;5531797;32;34278;-67
2022/07/04 09:13:48;;;;;;;1.25;0.77;;;;;;;36.50;21.57;100339.28;5531482;32;34600;-69
2022/07/04 09:16:54;;;;;;;1.10;0.80;;;;;;;36.99;20.53;100339.38;5531482;32;34849;-68
2022/07/04 09:20:17;;;;;;;1.90;0.80;;;;;;;37.47;20.11;100340.56;5531266;32;34250;-69
2022/07/04 09:23:23;;;;;;;1.70;0.75;;;;;;;37.34;20.00;100331.44;5531229;32;35283;-69
2022/07/04 09:26:26;;;;;;;0.80;0.60;;;;;;;37.71;20.24;100329.44;5531645;32;34819;-69
2022/07/04 09:29:30;;;;;;;3.30;1.00;;;;;;;37.26;19.37;100338.72;5530548;32;32897;-68
2022/07/04 09:32:38;;;;;;;1.80;1.00;;;;;;;36.06;20.88;100338.09;5531203;32;35472;-69
2022/07/04 09:35:41;;;;;;;1.02;0.93;;;;;;;36.60;20.66;100338.03;5531329;32;34318;-68
2022/07/04 09:38:45;;;;;;;1.15;0.90;;;;;;;36.36;20.95;100344.31;5517758;32;32746;-68
2022/07/04 09:42:02;;;;;;;3.22;1.17;;;;;;;38.12;20.09;100333.81;5531314;32;35455;-68
2022/07/04 09:45:08;;;;;;;1.40;1.00;;;;;;;38.08;19.56;100328.19;5530930;32;34577;-68
2022/07/04 09:48:11;;;;;;;1.50;0.90;;;;;;;37.16;21.01;100330.09;5518027;32;34127;-69
2022/07/04 09:51:14;;;;;;;3.10;1.00;;;;;;;37.32;20.62;100334.56;5531039;32;34240;-69
2022/07/04 09:54:31;;;;;;;3.05;1.00;;;;;;;38.93;20.08;100322.13;5531106;32;34169;-68
2022/07/04 09:57:35;;;;;;;1.83;1.17;;;;;;;38.95;19.77;100314.28;5530324;32;33138;-69
2022/07/04 10:00:38;;;;;;;1.02;0.80;;;;;;;39.18;18.62;100313.59;5531116;32;34155;-69
2022/07/04 10:03:41;;;;;;;1.60;0.93;;;;;;;38.55;18.60;100319.16;5530537;32;34219;-68
2022/07/04 10:06:45;;;;;;;1.60;0.93;;;;;;;39.00;18.14;100310.41;5531097;32;34533;-69
2022/07/04 10:09:49;;;;;;;1.40;1.00;;;;;;;37.73;19.60;100307.72;5530363;32;35558;-69
2022/07/04 10:12:54;;;;;;;2.03;1.02;;;;;;;38.02;19.50;100303.84;5530308;32;33563;-68
2022/07/04 10:15:58;;;;;;;1.73;1.17;;;;;;;37.40;20.13;100305.97;5531103;32;34338;-68
2022/07/04 10:19:01;;;;;;;3.15;0.90;;;;;;;38.20;19.93;100302.34;5530576;32;34938;-68
2022/07/04 10:22:08;;;;;;;2.42;1.10;;;;;;;40.58;18.04;100303.03;5530221;32;32997;-67
2022/07/04 10:25:15;;;;;;;3.00;0.90;;;;;;;39.00;18.60;100289.03;5531271;32;34246;-69
2022/07/04 10:28:21;;;;;;;1.23;0.90;;;;;;;40.85;17.65;100301.94;5530010;32;33575;-69
2022/07/04 10:31:26;;;;;;;2.55;0.90;;;;;;;40.24;17.56;100297.25;5531290;32;34238;-70
2022/07/04 10:34:29;;;;;;;1.33;0.85;;;;;;;39.78;17.70;100290.81;5530937;32;34292;-69
2022/07/04 10:38:03;;;;;;;1.30;0.90;;;;;;;39.63;17.30;100276.94;5530184;32;34263;-69
2022/07/04 10:41:08;;;;;;;2.60;0.80;;;;;;;40.56;16.85;100269.22;5530692;32;34919;-69
2022/07/04 10:44:25;;;;;;;1.00;0.90;;;;;;;40.32;16.60;100274.00;5530505;32;34223;-68
2022/07/04 10:47:30;;;;;;;1.17;0.85;;;;;;;41.47;16.33;100269.06;5530249;32;32973;-68
2022/07/04 10:50:33;;;;;;;2.65;1.00;;;;;;;41.43;16.17;100270.97;5530760;32;34296;-68
2022/07/04 10:53:59;;;;;;;2.78;0.60;;;;;;;41.98;15.89;100266.50;5530683;32;34276;-68
2022/07/04 10:57:11;;;;;;;3.77;0.80;;;;;;;44.73;13.49;100269.25;5530811;32;34863;-68
2022/07/04 11:00:14;;;;;;;1.15;0.80;;;;;;;42.68;14.45;100246.91;5529880;32;33303;-69
2022/07/04 11:03:19;;;;;;;0.60;0.60;;;;;;;42.54;14.89;100251.53;5530812;32;35327;-67
2022/07/04 11:06:35;;;;;;;2.17;0.70;;;;;;;41.21;15.35;100255.97;5530111;32;34250;-67
2022/07/04 11:09:37;;;;;;;0.93;0.65;;;;;;;42.59;13.58;100257.56;5530355;32;34268;-68
2022/07/04 11:13:02;;;;;;;0.60;0.60;;;;;;;42.90;13.55;100250.63;5530256;32;34948;-67
2022/07/04 11:16:06;;;;;;;1.50;0.90;;;;;;;41.04;14.79;100243.41;5530117;32;34798;-66
2022/07/04 11:19:14;;;;;;;1.05;0.70;;;;;;;42.70;14.11;100235.34;5530265;32;34272;-67
2022/07/04 11:22:23;;;;;;;0.70;0.60;;;;;;;41.83;13.89;100248.78;5530241;32;34329;-69
2022/07/04 11:25:27;;;;;;;0.70;0.60;;;;;;;39.68;15.20;100226.66;5529935;32;34170;-67
2022/07/04 11:28:35;;;;;;;1.75;0.80;;;;;;;40.27;15.74;100229.84;5530134;32;35392;-67
2022/07/04 11:31:52;;;;;;;3.35;0.70;;;;;;;40.12;15.55;100216.81;5532354;32;34831;-67
2022/07/04 11:34:58;;;;;;;3.50;0.77;;;;;;;40.97;14.13;100214.63;5531616;32;32568;-67
2022/07/04 11:38:03;;;;;;;2.70;0.73;;;;;;;40.24;14.68;100221.41;5531611;32;34162;-70
2022/07/04 11:47:55;;;;;;;2.30;0.70;;;;;;;40.74;12.98;100192.47;5532292;32;34182;-67
2022/07/04 11:50:58;;;;;;;0.70;0.60;;;;;;;41.98;12.49;100199.63;5531548;32;34533;-68
2022/07/04 11:54:04;;;;;;;9.77;0.80;;;;;;;40.65;13.09;100189.16;5532250;32;34591;-67
2022/07/04 11:57:33;;;;;;;0.85;0.50;;;;;;;41.55;12.99;100199.16;5532184;32;34558;-67
2022/07/04 12:00:37;;;;;;;1.00;0.50;;;;;;;42.67;12.84;100191.44;5530811;32;32705;-67
2022/07/04 12:03:40;;;;;;;0.65;0.60;;;;;;;43.55;11.91;100188.38;5531564;32;34604;-67
2022/07/04 12:06:48;;;;;;;1.30;0.60;;;;;;;43.86;11.46;100196.06;5531041;32;34473;-67
2022/07/04 12:09:55;;;;;;;2.93;0.80;;;;;;;43.88;11.45;100195.63;5531400;32;34885;-68
2022/07/04 12:13:09;;;;;;;1.87;0.70;;;;;;;45.26;10.56;100185.13;5531212;32;34076;-67
2022/07/04 12:16:12;;;;;;;1.73;0.70;;;;;;;47.43;9.65;100198.16;5531861;32;34240;-67
2022/07/04 12:19:16;;;;;;;0.93;0.70;;;;;;;44.19;11.52;100200.47;5532111;32;34250;-67
2022/07/04 12:22:24;;;;;;;4.75;0.80;;;;;;;42.94;12.86;100187.28;5530746;32;34644;-69
2022/07/04 12:25:36;;;;;;;1.33;0.70;;;;;;;44.90;11.10;100183.63;5531920;32;34228;-68
2022/07/04 12:28:42;;;;;;;0.98;0.60;;;;;;;42.93;11.97;100188.44;5530753;32;34662;-69
2022/07/04 12:31:45;;;;;;;1.17;0.60;;;;;;;42.52;12.48;100192.53;5531011;32;34057;-69
2022/07/04 12:34:49;;;;;;;0.73;0.70;;;;;;;43.50;11.73;100183.16;5531757;32;35511;-68
2022/07/04 12:38:09;;;;;;;1.05;0.60;;;;;;;41.77;13.53;100180.69;5531819;32;34824;-69
2022/07/04 12:41:29;;;;;;;1.00;0.68;;;;;;;42.58;12.92;100183.41;5530871;32;32897;-68
2022/07/04 12:44:33;;;;;;;1.02;0.70;;;;;;;42.32;12.83;100184.41;5530914;32;34846;-69
2022/07/04 12:47:48;;;;;;;1.45;0.70;;;;;;;43.05;12.42;100174.16;5531890;32;34335;-69
2022/07/04 12:51:26;;;;;;;3.05;0.60;;;;;;;43.28;12.21;100173.88;5531008;32;34867;-69
2022/07/04 12:54:28;;;;;;;1.53;0.70;;;;;;;45.92;11.37;100176.78;5531886;32;34253;-67
2022/07/04 12:57:31;;;;;;;4.00;0.70;;;;;;;45.90;10.83;100167.97;5531689;32;34208;-68
2022/07/04 13:00:44;;;;;;;1.45;0.80;;;;;;;43.75;12.01;100168.06;5531691;32;34232;-69
2022/07/04 13:03:47;;;;;;;2.33;0.65;;;;;;;44.38;12.09;100168.53;5531027;32;33796;-68
2022/07/04 13:06:52;;;;;;;2.92;0.70;;;;;;;46.30;10.50;100174.09;5530586;32;34828;-69
2022/07/04 13:09:56;;;;;;;0.70;0.60;;;;;;;44.80;11.14;100160.06;5530834;32;34276;-68
2022/07/04 13:12:59;;;;;;;4.22;0.62;;;;;;;45.85;10.95;100166.41;5531432;32;34629;-70
2022/07/04 13:16:02;;;;;;;0.77;0.62;;;;;;;44.87;10.87;100160.06;5530652;32;33002;-68
2022/07/04 13:19:05;;;;;;;1.70;0.68;;;;;;;42.95;12.48;100154.56;5531616;32;34247;-68
2022/07/04 13:22:07;;;;;;;1.15;0.60;;;;;;;45.58;11.21;100159.75;5531748;32;34176;-68
2022/07/04 13:25:12;;;;;;;1.10;0.60;;;;;;;46.91;10.04;100156.25;5517941;32;32796;-68
2022/07/04 13:28:15;;;;;;;0.93;0.73;;;;;;;46.54;10.10;100167.47;5531485;32;34201;-70
2022/07/04 13:31:18;;;;;;;0.85;0.70;;;;;;;47.72;9.19;100160.00;5531685;32;34612;-69
2022/07/04 13:34:21;;;;;;;1.60;0.90;;;;;;;44.83;11.22;100161.28;5531437;32;34193;-69
2022/07/04 13:37:26;;;;;;;1.02;0.70;;;;;;;45.27;11.17;100152.31;5531304;32;34271;-68
2022/07/04 13:40:34;;;;;;;1.05;0.80;;;;;;;45.76;10.61;100157.62;5530546;32;34923;-68
2022/07/04 13:43:48;;;;;;;1.77;0.77;;;;;;;46.55;10.77;100160.62;5531340;32;34113;-68
2022/07/04 13:46:52;;;;;;;0.70;0.70;;;;;;;48.26;9.80;100157.94;5531337;32;34834;-69
2022/07/04 13:49:57;;;;;;;1.05;0.90;;;;;;;45.50;11.46;100144.22;5530906;32;33813;-68
2022/07/04 13:53:00;;;;;;;1.35;0.80;;;;;;;46.54;10.83;100147.81;5529557;32;34143;-68
2022/07/04 13:56:05;;;;;;;3.70;1.10;;;;;;;43.99;12.42;100146.94;5531295;32;34178;-69
2022/07/04 13:59:09;;;;;;;1.23;0.82;;;;;;;45.41;11.72;100141.84;5530875;32;34583;-67
2022/07/04 14:02:12;;;;;;;1.92;0.73;;;;;;;45.53;11.60;100129.38;5530432;32;34288;-69
2022/07/04 14:05:15;;;;;;;1.67;0.90;;;;;;;46.58;11.05;100132.53;5517852;32;34044;-69
2022/07/04 14:08:18;;;;;;;0.85;0.80;;;;;;;46.08;11.36;100123.78;5531150;32;34888;-68
2022/07/04 14:11:24;;;;;;;1.58;0.90;;;;;;;47.00;10.72;100130.47;5530368;32;34293;-68
2022/07/04 14:14:28;;;;;;;1.48;0.80;;;;;;;47.87;10.41;100129.63;5531023;32;34396;-67
2022/07/04 14:17:31;;;;;;;1.15;1.00;;;;;;;48.52;9.47;100130.91;5530131;32;34263;-69
2022/07/04 14:20:37;;;;;;;3.37;0.90;;;;;;;44.85;12.03;100123.25;5531052;32;34530;-69
2022/07/04 14:23:41;;;;;;;4.75;0.90;;;;;;;41.47;14.38;100113.12;5530880;32;34748;-68
2022/07/04 14:26:44;;;;;;;7.93;1.12;;;;;;;43.46;13.47;100129.25;5530430;32;32422;-68
2022/07/04 14:29:57;;;;;;;2.28;1.20;;;;;;;41.00;15.22;100108.16;5518837;32;33034;-68
2022/07/04 14:33:01;;;;;;;2.25;1.05;;;;;;;39.71;16.54;100115.63;5530921;32;34421;-69
2022/07/04 14:36:09;;;;;;;2.55;0.98;;;;;;;38.49;17.74;100102.38;5530816;32;34302;-68
2022/07/04 14:39:13;;;;;;;2.10;1.00;;;;;;;39.99;16.59;100107.00;5530374;32;33008;-68